CPX656 Details

Departure: Key West International Airport (KEYW)
Arrival: The Florida Keys Marathon International Airport (KMTH)
Route: VPKOE


Current Weather Information
KEYW 190712Z AUTO 04009G16KT 10SM BKN013 BKN070 23/20 A2997 RMK AO2 T02280200
KMTH 190653Z AUTO 04013KT 10SM OVC014 23/19 A2997 RMK AO2 SLP148 T02330194